sensor_id;sensor_type;location;lat;lon;timestamp;P1;durP1;ratioP1;P2;durP2;ratioP2
57155;SDS011;43023;59.928;10.682;2022-09-04T00:06:41;3.10;;;1.50;;
57155;SDS011;43023;59.928;10.682;2022-09-04T00:09:19;3.33;;;1.75;;
57155;SDS011;43023;59.928;10.682;2022-09-04T00:14:32;1.60;;;1.10;;
57155;SDS011;43023;59.928;10.682;2022-09-04T00:17:00;1.88;;;1.08;;
57155;SDS011;43023;59.928;10.682;2022-09-04T00:19:33;2.20;;;1.33;;
57155;SDS011;43023;59.928;10.682;2022-09-04T00:22:16;2.30;;;1.33;;
57155;SDS011;43023;59.928;10.682;2022-09-04T00:24:48;1.45;;;0.88;;
57155;SDS011;43023;59.928;10.682;2022-09-04T00:29:56;2.20;;;1.10;;
57155;SDS011;43023;59.928;10.682;2022-09-04T00:32:40;3.03;;;1.55;;
57155;SDS011;43023;59.928;10.682;2022-09-04T00:35:19;1.70;;;1.00;;
57155;SDS011;43023;59.928;10.682;2022-09-04T00:37:48;1.20;;;0.70;;
57155;SDS011;43023;59.928;10.682;2022-09-04T00:40:18;3.08;;;0.98;;
57155;SDS011;43023;59.928;10.682;2022-09-04T00:42:51;3.75;;;1.42;;
57155;SDS011;43023;59.928;10.682;2022-09-04T01:01:39;1.25;;;1.13;;
57155;SDS011;43023;59.928;10.682;2022-09-04T01:04:09;4.32;;;0.93;;
57155;SDS011;43023;59.928;10.682;2022-09-04T01:06:45;1.10;;;0.75;;
57155;SDS011;43023;59.928;10.682;2022-09-04T01:22:25;1.80;;;0.98;;
57155;SDS011;43023;59.928;10.682;2022-09-04T01:27:48;2.83;;;0.90;;
57155;SDS011;43023;59.928;10.682;2022-09-04T01:30:19;1.02;;;0.90;;
57155;SDS011;43023;59.928;10.682;2022-09-04T01:40:49;1.23;;;0.60;;
57155;SDS011;43023;59.928;10.682;2022-09-04T01:43:17;0.63;;;0.52;;
57155;SDS011;43023;59.928;10.682;2022-09-04T01:48:12;0.52;;;0.52;;
57155;SDS011;43023;59.928;10.682;2022-09-04T01:50:40;2.13;;;0.85;;
57155;SDS011;43023;59.928;10.682;2022-09-04T01:58:21;1.42;;;0.85;;
57155;SDS011;43023;59.928;10.682;2022-09-04T02:08:32;0.50;;;0.50;;
57155;SDS011;43023;59.928;10.682;2022-09-04T02:16:42;0.50;;;0.50;;
57155;SDS011;43023;59.928;10.682;2022-09-04T02:19:13;1.25;;;0.98;;
57155;SDS011;43023;59.928;10.682;2022-09-04T02:24:20;0.77;;;0.65;;
57155;SDS011;43023;59.928;10.682;2022-09-04T02:26:59;0.90;;;0.80;;
57155;SDS011;43023;59.928;10.682;2022-09-04T02:32:46;1.23;;;0.50;;
57155;SDS011;43023;59.928;10.682;2022-09-04T02:39:54;0.57;;;0.57;;
57155;SDS011;43023;59.928;10.682;2022-09-04T02:42:30;1.95;;;0.50;;
57155;SDS011;43023;59.928;10.682;2022-09-04T02:55:48;0.98;;;0.80;;
57155;SDS011;43023;59.928;10.682;2022-09-04T03:00:48;2.25;;;0.77;;
57155;SDS011;43023;59.928;10.682;2022-09-04T03:06:11;0.85;;;0.60;;
57155;SDS011;43023;59.928;10.682;2022-09-04T03:14:01;0.40;;;0.40;;
57155;SDS011;43023;59.928;10.682;2022-09-04T03:27:01;1.05;;;0.70;;
57155;SDS011;43023;59.928;10.682;2022-09-04T03:32:23;0.30;;;0.30;;
57155;SDS011;43023;59.928;10.682;2022-09-04T03:50:30;0.40;;;0.40;;
57155;SDS011;43023;59.928;10.682;2022-09-04T03:56:13;1.13;;;0.43;;
57155;SDS011;43023;59.928;10.682;2022-09-04T04:16:41;0.52;;;0.40;;
57155;SDS011;43023;59.928;10.682;2022-09-04T04:37:05;0.30;;;0.30;;
57155;SDS011;43023;59.928;10.682;2022-09-04T04:39:38;0.17;;;0.17;;
57155;SDS011;43023;59.928;10.682;2022-09-04T04:45:04;0.40;;;0.40;;
57155;SDS011;43023;59.928;10.682;2022-09-04T04:53:30;0.25;;;0.20;;
57155;SDS011;43023;59.928;10.682;2022-09-04T05:01:32;1.02;;;0.70;;
57155;SDS011;43023;59.928;10.682;2022-09-04T05:06:35;0.40;;;0.38;;
57155;SDS011;43023;59.928;10.682;2022-09-04T05:19:20;0.20;;;0.20;;
57155;SDS011;43023;59.928;10.682;2022-09-04T05:21:52;0.40;;;0.30;;
57155;SDS011;43023;59.928;10.682;2022-09-04T05:43:03;0.60;;;0.30;;
57155;SDS011;43023;59.928;10.682;2022-09-04T05:48:13;0.40;;;0.20;;
57155;SDS011;43023;59.928;10.682;2022-09-04T05:50:59;0.20;;;0.20;;
57155;SDS011;43023;59.928;10.682;2022-09-04T06:03:47;0.30;;;0.30;;
57155;SDS011;43023;59.928;10.682;2022-09-04T06:06:36;0.25;;;0.25;;
57155;SDS011;43023;59.928;10.682;2022-09-04T06:09:15;0.20;;;0.20;;
57155;SDS011;43023;59.928;10.682;2022-09-04T06:14:38;0.30;;;0.30;;
57155;SDS011;43023;59.928;10.682;2022-09-04T06:22:18;0.35;;;0.22;;
57155;SDS011;43023;59.928;10.682;2022-09-04T06:27:23;0.30;;;0.30;;
57155;SDS011;43023;59.928;10.682;2022-09-04T06:29:59;0.32;;;0.32;;
57155;SDS011;43023;59.928;10.682;2022-09-04T06:43:35;0.47;;;0.30;;
57155;SDS011;43023;59.928;10.682;2022-09-04T06:50:52;1.70;;;0.20;;
57155;SDS011;43023;59.928;10.682;2022-09-04T07:01:13;0.30;;;0.30;;
57155;SDS011;43023;59.928;10.682;2022-09-04T07:03:43;0.43;;;0.13;;
57155;SDS011;43023;59.928;10.682;2022-09-04T07:08:56;0.13;;;0.13;;
57155;SDS011;43023;59.928;10.682;2022-09-04T07:21:23;0.63;;;0.20;;
57155;SDS011;43023;59.928;10.682;2022-09-04T07:26:38;0.30;;;0.30;;
57155;SDS011;43023;59.928;10.682;2022-09-04T07:31:58;0.68;;;0.45;;
57155;SDS011;43023;59.928;10.682;2022-09-04T07:39:45;1.05;;;0.30;;
57155;SDS011;43023;59.928;10.682;2022-09-04T07:42:23;0.77;;;0.30;;
57155;SDS011;43023;59.928;10.682;2022-09-04T07:45:55;0.45;;;0.30;;
57155;SDS011;43023;59.928;10.682;2022-09-04T07:48:08;0.10;;;0.10;;
57155;SDS011;43023;59.928;10.682;2022-09-04T07:50:38;0.20;;;0.20;;
57155;SDS011;43023;59.928;10.682;2022-09-04T07:53:12;0.25;;;0.25;;
57155;SDS011;43023;59.928;10.682;2022-09-04T07:55:40;0.10;;;0.10;;
57155;SDS011;43023;59.928;10.682;2022-09-04T08:00:40;0.55;;;0.20;;
57155;SDS011;43023;59.928;10.682;2022-09-04T08:03:15;0.20;;;0.20;;
57155;SDS011;43023;59.928;10.682;2022-09-04T08:16:33;0.20;;;0.20;;
57155;SDS011;43023;59.928;10.682;2022-09-04T08:19:12;0.47;;;0.30;;
57155;SDS011;43023;59.928;10.682;2022-09-04T08:21:41;0.50;;;0.40;;
57155;SDS011;43023;59.928;10.682;2022-09-04T08:26:50;0.80;;;0.20;;
57155;SDS011;43023;59.928;10.682;2022-09-04T08:37:26;0.68;;;0.30;;
57155;SDS011;43023;59.928;10.682;2022-09-04T09:00:56;0.57;;;0.20;;
57155;SDS011;43023;59.928;10.682;2022-09-04T09:24:08;1.13;;;0.40;;
57155;SDS011;43023;59.928;10.682;2022-09-04T09:30:25;1.40;;;0.40;;
57155;SDS011;43023;59.928;10.682;2022-09-04T09:35:22;1.10;;;0.30;;
57155;SDS011;43023;59.928;10.682;2022-09-04T09:40:50;0.45;;;0.30;;
57155;SDS011;43023;59.928;10.682;2022-09-04T09:43:34;0.47;;;0.22;;
57155;SDS011;43023;59.928;10.682;2022-09-04T09:48:40;0.77;;;0.38;;
57155;SDS011;43023;59.928;10.682;2022-09-04T10:25:21;3.08;;;0.55;;
57155;SDS011;43023;59.928;10.682;2022-09-04T10:28:13;0.90;;;0.38;;
57155;SDS011;43023;59.928;10.682;2022-09-04T10:31:07;2.65;;;0.50;;
57155;SDS011;43023;59.928;10.682;2022-09-04T10:38:37;1.75;;;0.68;;
57155;SDS011;43023;59.928;10.682;2022-09-04T10:41:37;2.60;;;0.38;;
57155;SDS011;43023;59.928;10.682;2022-09-04T10:46:38;0.52;;;0.30;;
57155;SDS011;43023;59.928;10.682;2022-09-04T10:51:46;1.85;;;0.43;;
57155;SDS011;43023;59.928;10.682;2022-09-04T11:05:01;2.75;;;0.57;;
57155;SDS011;43023;59.928;10.682;2022-09-04T11:46:21;1.08;;;0.63;;
57155;SDS011;43023;59.928;10.682;2022-09-04T12:10:25;1.80;;;0.52;;
57155;SDS011;43023;59.928;10.682;2022-09-04T12:25:49;2.35;;;0.57;;
57155;SDS011;43023;59.928;10.682;2022-09-04T12:31:12;1.13;;;0.57;;
57155;SDS011;43023;59.928;10.682;2022-09-04T12:41:47;4.80;;;1.55;;
57155;SDS011;43023;59.928;10.682;2022-09-04T12:49:30;2.75;;;0.55;;
57155;SDS011;43023;59.928;10.682;2022-09-04T13:00:03;2.15;;;0.90;;
57155;SDS011;43023;59.928;10.682;2022-09-04T13:07:56;1.58;;;0.75;;
57155;SDS011;43023;59.928;10.682;2022-09-04T13:15:21;4.35;;;0.40;;
57155;SDS011;43023;59.928;10.682;2022-09-04T13:28:38;2.78;;;0.68;;
57155;SDS011;43023;59.928;10.682;2022-09-04T13:38:51;2.55;;;0.70;;
57155;SDS011;43023;59.928;10.682;2022-09-04T13:46:34;1.13;;;0.60;;
57155;SDS011;43023;59.928;10.682;2022-09-04T13:49:02;4.13;;;0.80;;
57155;SDS011;43023;59.928;10.682;2022-09-04T13:51:35;1.05;;;0.70;;
57155;SDS011;43023;59.928;10.682;2022-09-04T13:54:07;2.45;;;0.50;;
57155;SDS011;43023;59.928;10.682;2022-09-04T13:56:38;0.80;;;0.60;;
57155;SDS011;43023;59.928;10.682;2022-09-04T13:59:07;0.70;;;0.43;;
57155;SDS011;43023;59.928;10.682;2022-09-04T14:01:38;0.75;;;0.52;;
57155;SDS011;43023;59.928;10.682;2022-09-04T14:04:10;3.25;;;0.65;;
57155;SDS011;43023;59.928;10.682;2022-09-04T14:06:38;2.67;;;0.30;;
57155;SDS011;43023;59.928;10.682;2022-09-04T14:09:04;1.15;;;0.50;;
57155;SDS011;43023;59.928;10.682;2022-09-04T14:16:45;0.20;;;0.20;;
57155;SDS011;43023;59.928;10.682;2022-09-04T14:40:12;2.28;;;0.50;;
57155;SDS011;43023;59.928;10.682;2022-09-04T14:42:46;1.30;;;0.40;;
57155;SDS011;43023;59.928;10.682;2022-09-04T14:45:18;1.73;;;0.60;;
57155;SDS011;43023;59.928;10.682;2022-09-04T14:47:51;0.60;;;0.40;;
57155;SDS011;43023;59.928;10.682;2022-09-04T14:50:20;1.98;;;0.70;;
57155;SDS011;43023;59.928;10.682;2022-09-04T14:55:15;1.85;;;0.93;;
57155;SDS011;43023;59.928;10.682;2022-09-04T14:58:44;2.38;;;0.50;;
57155;SDS011;43023;59.928;10.682;2022-09-04T15:06:28;1.67;;;0.32;;
57155;SDS011;43023;59.928;10.682;2022-09-04T15:08:56;2.35;;;0.57;;
57155;SDS011;43023;59.928;10.682;2022-09-04T15:13:52;4.25;;;0.73;;
57155;SDS011;43023;59.928;10.682;2022-09-04T15:16:24;0.68;;;0.40;;
57155;SDS011;43023;59.928;10.682;2022-09-04T15:21:36;1.25;;;0.68;;
57155;SDS011;43023;59.928;10.682;2022-09-04T15:24:21;2.88;;;0.80;;
57155;SDS011;43023;59.928;10.682;2022-09-04T15:29:26;0.98;;;0.40;;
57155;SDS011;43023;59.928;10.682;2022-09-04T15:32:01;1.08;;;0.50;;
57155;SDS011;43023;59.928;10.682;2022-09-04T15:34:27;0.65;;;0.47;;
57155;SDS011;43023;59.928;10.682;2022-09-04T15:37:06;0.40;;;0.40;;
57155;SDS011;43023;59.928;10.682;2022-09-04T15:40:04;1.50;;;0.60;;
57155;SDS011;43023;59.928;10.682;2022-09-04T15:50:19;0.73;;;0.47;;
57155;SDS011;43023;59.928;10.682;2022-09-04T15:55:32;0.85;;;0.43;;
57155;SDS011;43023;59.928;10.682;2022-09-04T15:58:04;0.45;;;0.45;;
57155;SDS011;43023;59.928;10.682;2022-09-04T16:00:51;0.88;;;0.55;;
57155;SDS011;43023;59.928;10.682;2022-09-04T16:03:24;2.17;;;0.60;;
57155;SDS011;43023;59.928;10.682;2022-09-04T16:05:58;4.67;;;0.57;;
57155;SDS011;43023;59.928;10.682;2022-09-04T16:11:05;14.18;;;1.45;;
57155;SDS011;43023;59.928;10.682;2022-09-04T16:16:13;9.23;;;1.13;;
57155;SDS011;43023;59.928;10.682;2022-09-04T16:18:58;6.28;;;1.45;;
57155;SDS011;43023;59.928;10.682;2022-09-04T16:24:10;6.85;;;1.35;;
57155;SDS011;43023;59.928;10.682;2022-09-04T16:26:38;6.72;;;1.00;;
57155;SDS011;43023;59.928;10.682;2022-09-04T16:29:12;6.75;;;0.88;;
57155;SDS011;43023;59.928;10.682;2022-09-04T16:31:40;6.50;;;0.75;;
57155;SDS011;43023;59.928;10.682;2022-09-04T16:34:19;5.10;;;0.90;;
57155;SDS011;43023;59.928;10.682;2022-09-04T16:36:46;6.80;;;1.13;;
57155;SDS011;43023;59.928;10.682;2022-09-04T16:44:31;3.90;;;0.82;;
57155;SDS011;43023;59.928;10.682;2022-09-04T16:47:48;2.35;;;0.82;;
57155;SDS011;43023;59.928;10.682;2022-09-04T16:50:03;8.00;;;0.90;;
57155;SDS011;43023;59.928;10.682;2022-09-04T17:00:26;6.43;;;0.75;;
57155;SDS011;43023;59.928;10.682;2022-09-04T17:03:08;3.60;;;1.45;;
57155;SDS011;43023;59.928;10.682;2022-09-04T17:05:44;15.35;;;1.13;;
57155;SDS011;43023;59.928;10.682;2022-09-04T17:11:13;3.58;;;0.73;;
57155;SDS011;43023;59.928;10.682;2022-09-04T17:13:44;3.75;;;0.52;;
57155;SDS011;43023;59.928;10.682;2022-09-04T17:16:20;5.00;;;1.08;;
57155;SDS011;43023;59.928;10.682;2022-09-04T17:18:50;10.18;;;1.45;;
57155;SDS011;43023;59.928;10.682;2022-09-04T17:24:09;12.18;;;1.42;;
57155;SDS011;43023;59.928;10.682;2022-09-04T17:26:37;6.15;;;1.17;;
57155;SDS011;43023;59.928;10.682;2022-09-04T17:29:06;3.92;;;0.90;;
57155;SDS011;43023;59.928;10.682;2022-09-04T17:31:43;3.13;;;0.90;;
57155;SDS011;43023;59.928;10.682;2022-09-04T17:34:17;7.22;;;1.20;;
57155;SDS011;43023;59.928;10.682;2022-09-04T17:39:22;3.65;;;1.13;;
57155;SDS011;43023;59.928;10.682;2022-09-04T17:47:31;6.03;;;1.48;;
57155;SDS011;43023;59.928;10.682;2022-09-04T17:49:58;8.07;;;1.20;;
57155;SDS011;43023;59.928;10.682;2022-09-04T17:52:26;9.05;;;1.40;;
57155;SDS011;43023;59.928;10.682;2022-09-04T17:54:55;7.35;;;1.40;;
57155;SDS011;43023;59.928;10.682;2022-09-04T17:59:58;4.50;;;1.60;;
57155;SDS011;43023;59.928;10.682;2022-09-04T18:05:09;4.93;;;1.52;;
57155;SDS011;43023;59.928;10.682;2022-09-04T18:07:43;4.00;;;1.10;;
57155;SDS011;43023;59.928;10.682;2022-09-04T18:13:03;5.90;;;1.20;;
57155;SDS011;43023;59.928;10.682;2022-09-04T18:15:35;11.30;;;2.58;;
57155;SDS011;43023;59.928;10.682;2022-09-04T18:20:49;7.78;;;1.58;;
57155;SDS011;43023;59.928;10.682;2022-09-04T18:23:19;5.70;;;1.92;;
57155;SDS011;43023;59.928;10.682;2022-09-04T18:28:41;6.93;;;1.77;;
57155;SDS011;43023;59.928;10.682;2022-09-04T18:31:13;3.85;;;1.50;;
57155;SDS011;43023;59.928;10.682;2022-09-04T18:33:43;6.88;;;2.10;;
57155;SDS011;43023;59.928;10.682;2022-09-04T18:36:13;8.40;;;2.22;;
57155;SDS011;43023;59.928;10.682;2022-09-04T18:39:03;6.85;;;1.45;;
57155;SDS011;43023;59.928;10.682;2022-09-04T18:41:30;2.88;;;1.33;;
57155;SDS011;43023;59.928;10.682;2022-09-04T18:44:03;10.02;;;1.80;;
57155;SDS011;43023;59.928;10.682;2022-09-04T18:46:31;4.68;;;1.30;;
57155;SDS011;43023;59.928;10.682;2022-09-04T18:49:08;4.57;;;1.50;;
57155;SDS011;43023;59.928;10.682;2022-09-04T18:51:41;10.30;;;2.03;;
57155;SDS011;43023;59.928;10.682;2022-09-04T18:54:48;5.03;;;1.75;;
57155;SDS011;43023;59.928;10.682;2022-09-04T18:57:12;8.45;;;1.38;;
57155;SDS011;43023;59.928;10.682;2022-09-04T18:59:45;7.10;;;1.52;;
57155;SDS011;43023;59.928;10.682;2022-09-04T19:02:13;3.67;;;1.23;;
57155;SDS011;43023;59.928;10.682;2022-09-04T19:07:20;8.63;;;1.23;;
57155;SDS011;43023;59.928;10.682;2022-09-04T19:12:18;2.97;;;1.00;;
57155;SDS011;43023;59.928;10.682;2022-09-04T19:14:47;4.15;;;1.27;;
57155;SDS011;43023;59.928;10.682;2022-09-04T19:17:14;5.40;;;1.48;;
57155;SDS011;43023;59.928;10.682;2022-09-04T19:19:47;3.67;;;1.20;;
57155;SDS011;43023;59.928;10.682;2022-09-04T19:22:20;2.25;;;1.10;;
57155;SDS011;43023;59.928;10.682;2022-09-04T19:30:42;6.32;;;1.40;;
57155;SDS011;43023;59.928;10.682;2022-09-04T19:35:33;7.35;;;1.45;;
57155;SDS011;43023;59.928;10.682;2022-09-04T19:43:15;4.43;;;1.10;;
57155;SDS011;43023;59.928;10.682;2022-09-04T19:50:42;3.83;;;1.58;;
57155;SDS011;43023;59.928;10.682;2022-09-04T20:00:41;7.85;;;1.15;;
57155;SDS011;43023;59.928;10.682;2022-09-04T20:03:22;4.07;;;1.02;;
57155;SDS011;43023;59.928;10.682;2022-09-04T20:05:52;8.57;;;1.42;;
57155;SDS011;43023;59.928;10.682;2022-09-04T20:08:22;5.75;;;1.42;;
57155;SDS011;43023;59.928;10.682;2022-09-04T20:13:27;4.45;;;1.08;;
57155;SDS011;43023;59.928;10.682;2022-09-04T20:18:27;4.68;;;1.52;;
57155;SDS011;43023;59.928;10.682;2022-09-04T20:21:01;6.60;;;1.70;;
57155;SDS011;43023;59.928;10.682;2022-09-04T20:23:33;7.13;;;1.35;;
57155;SDS011;43023;59.928;10.682;2022-09-04T20:28:32;4.70;;;1.30;;
57155;SDS011;43023;59.928;10.682;2022-09-04T20:33:49;5.03;;;1.20;;
57155;SDS011;43023;59.928;10.682;2022-09-04T20:36:18;4.40;;;1.38;;
57155;SDS011;43023;59.928;10.682;2022-09-04T20:38:53;3.17;;;0.82;;
57155;SDS011;43023;59.928;10.682;2022-09-04T20:41:26;2.17;;;0.82;;
57155;SDS011;43023;59.928;10.682;2022-09-04T20:49:04;2.83;;;0.73;;
57155;SDS011;43023;59.928;10.682;2022-09-04T20:51:31;5.25;;;1.20;;
57155;SDS011;43023;59.928;10.682;2022-09-04T20:54:13;5.85;;;1.15;;
57155;SDS011;43023;59.928;10.682;2022-09-04T21:06:47;6.78;;;1.08;;
57155;SDS011;43023;59.928;10.682;2022-09-04T21:09:18;5.03;;;1.17;;
57155;SDS011;43023;59.928;10.682;2022-09-04T21:11:52;6.13;;;0.93;;
57155;SDS011;43023;59.928;10.682;2022-09-04T21:14:33;6.53;;;0.60;;
57155;SDS011;43023;59.928;10.682;2022-09-04T21:27:21;2.80;;;0.80;;
57155;SDS011;43023;59.928;10.682;2022-09-04T22:01:31;3.55;;;0.70;;
57155;SDS011;43023;59.928;10.682;2022-09-04T22:06:49;2.05;;;0.90;;
57155;SDS011;43023;59.928;10.682;2022-09-04T22:19:56;2.47;;;0.70;;
57155;SDS011;43023;59.928;10.682;2022-09-04T22:27:30;2.88;;;0.73;;
57155;SDS011;43023;59.928;10.682;2022-09-04T22:40:26;0.82;;;0.60;;
57155;SDS011;43023;59.928;10.682;2022-09-04T22:55:58;1.80;;;0.77;;
57155;SDS011;43023;59.928;10.682;2022-09-04T23:16:55;4.15;;;0.90;;
57155;SDS011;43023;59.928;10.682;2022-09-04T23:19:29;3.90;;;0.68;;
57155;SDS011;43023;59.928;10.682;2022-09-04T23:22:06;2.08;;;0.82;;
57155;SDS011;43023;59.928;10.682;2022-09-04T23:27:11;1.73;;;0.70;;
57155;SDS011;43023;59.928;10.682;2022-09-04T23:32:18;2.00;;;1.08;;
57155;SDS011;43023;59.928;10.682;2022-09-04T23:40:06;0.88;;;0.63;;
57155;SDS011;43023;59.928;10.682;2022-09-04T23:47:48;2.72;;;0.90;;
57155;SDS011;43023;59.928;10.682;2022-09-04T23:52:47;1.23;;;0.50;;
